Time;durP1;ratioP1;P1;durP2;ratioP2;P2;SDS_P1;SDS_P2;PMS_P1;PMS_P2;Temp;Humidity;BMP_temperature;BMP_pressure;BME280_temperature;BME280_humidity;BME280_pressure;Samples;Min_cycle;Max_cycle;Signal;HPM_P1;HPM_P2
2023/05/29 00:02:34;;;;;;;13.55;4.53;;;;;;;10.91;100.00;102433.81;10296742;28;20065;-80
2023/05/29 00:07:35;;;;;;;20.63;5.03;;;;;;;10.83;100.00;102419.38;10297975;28;20030;-82
2023/05/29 00:12:35;;;;;;;11.50;3.72;;;;;;;10.78;100.00;102419.84;10279476;28;20157;-82
2023/05/29 00:17:36;;;;;;;8.02;3.00;;;;;;;10.71;100.00;102413.38;10278999;28;20424;-80
2023/05/29 00:22:39;;;;;;;21.33;4.68;;;;;;;10.68;100.00;102424.53;10296822;28;20038;-81
2023/05/29 00:27:40;;;;;;;10.65;3.97;;;;;;;10.59;100.00;102420.06;10296790;28;20031;-81
2023/05/29 00:32:40;;;;;;;23.60;4.07;;;;;;;10.56;100.00;102428.50;10278941;28;20441;-81
2023/05/29 00:37:40;;;;;;;13.07;5.57;;;;;;;10.49;100.00;102431.00;10278896;28;20043;-80
2023/05/29 00:42:41;;;;;;;11.57;3.85;;;;;;;10.48;100.00;102449.13;10282057;28;20038;-81
2023/05/29 00:47:41;;;;;;;13.90;5.32;;;;;;;10.47;100.00;102458.28;10264447;28;20038;-82
2023/05/29 00:52:43;;;;;;;16.77;5.15;;;;;;;10.47;100.00;102457.44;10268208;28;20038;-81
2023/05/29 00:57:45;;;;;;;11.50;5.25;;;;;;;10.43;100.00;102464.16;10273398;28;20039;-82
2023/05/29 01:02:45;;;;;;;19.45;4.65;;;;;;;10.38;100.00;102467.34;10283029;28;20071;-81
2023/05/29 01:07:46;;;;;;;12.98;4.15;;;;;;;10.30;100.00;102472.69;10296467;28;20082;-81
2023/05/29 01:12:49;;;;;;;9.23;3.85;;;;;;;10.31;100.00;102478.97;10298518;28;20500;-81
2023/05/29 01:18:03;;;;;;;5.68;4.05;;;;;;;10.24;100.00;102465.16;10255626;29;20054;-81
2023/05/29 01:23:17;;;;;;;10.63;4.15;;;;;;;10.19;100.00;102475.63;10255470;29;20082;-81
2023/05/29 01:28:20;;;;;;;15.70;4.57;;;;;;;10.16;100.00;102467.81;10239571;29;20035;-79
2023/05/29 01:33:21;;;;;;;11.80;4.47;;;;;;;10.12;100.00;102469.97;10238005;29;20046;-81
2023/05/29 01:38:21;;;;;;;16.48;4.07;;;;;;;10.11;100.00;102467.41;10254383;29;20039;-80
2023/05/29 01:43:21;;;;;;;11.50;4.47;;;;;;;10.02;100.00;102471.94;10255458;29;20134;-80
2023/05/29 01:48:23;;;;;;;13.60;4.32;;;;;;;10.01;100.00;102481.03;10254962;29;20035;-81
2023/05/29 01:53:23;;;;;;;9.00;3.95;;;;;;;9.98;100.00;102479.47;10240029;29;20133;-79
2023/05/29 01:58:24;;;;;;;10.13;4.53;;;;;;;9.92;100.00;102487.38;10246095;29;20066;-81
2023/05/29 02:03:24;;;;;;;11.00;5.07;;;;;;;9.92;100.00;102492.78;10266494;29;20050;-80
2023/05/29 02:08:25;;;;;;;5.43;4.05;;;;;;;9.84;100.00;102500.84;10272637;28;20027;-81
2023/05/29 02:13:25;;;;;;;3.45;2.45;;;;;;;9.84;100.00;102492.72;10300374;28;20059;-80
2023/05/29 02:18:26;;;;;;;8.48;3.28;;;;;;;9.78;100.00;102499.59;10300625;28;20035;-81
2023/05/29 02:23:26;;;;;;;22.13;4.57;;;;;;;9.80;100.00;102494.03;10283588;28;20035;-81
2023/05/29 02:28:26;;;;;;;16.88;3.67;;;;;;;9.76;100.00;102491.63;10286830;28;20062;-81
2023/05/29 02:33:27;;;;;;;19.70;4.30;;;;;;;9.77;100.00;102503.31;10288328;28;20351;-81
2023/05/29 02:38:27;;;;;;;15.20;4.45;;;;;;;9.71;100.00;102506.63;10304590;28;20049;-81
2023/05/29 02:43:27;;;;;;;9.60;3.17;;;;;;;9.73;100.00;102502.75;10287314;28;20050;-80
2023/05/29 02:48:29;;;;;;;16.00;4.15;;;;;;;9.78;100.00;102497.72;10284692;28;20031;-80
2023/05/29 02:53:29;;;;;;;3.47;2.78;;;;;;;9.88;100.00;102489.53;10302862;28;20158;-80
2023/05/29 02:58:29;;;;;;;18.83;4.13;;;;;;;9.98;100.00;102503.84;10302255;28;20147;-81
2023/05/29 03:03:30;;;;;;;14.05;3.90;;;;;;;9.99;100.00;102483.91;10285214;28;20035;-82
2023/05/29 03:08:31;;;;;;;12.32;3.92;;;;;;;9.95;100.00;102493.31;10303173;28;20038;-80
2023/05/29 03:13:34;;;;;;;11.23;4.05;;;;;;;10.00;100.00;102504.53;10301039;28;20070;-81
2023/05/29 03:18:35;;;;;;;14.40;4.72;;;;;;;9.95;100.00;102497.88;10285175;28;20035;-81
2023/05/29 03:23:35;;;;;;;18.45;4.80;;;;;;;9.91;100.00;102493.78;10301009;28;20066;-82
2023/05/29 03:28:35;;;;;;;10.13;3.63;;;;;;;9.81;100.00;102496.56;10283187;28;20031;-80
2023/05/29 03:33:36;;;;;;;14.77;2.83;;;;;;;9.80;100.00;102494.88;10282223;28;20069;-81
2023/05/29 03:38:36;;;;;;;18.85;5.25;;;;;;;9.72;100.00;102492.94;10299748;28;20061;-82
2023/05/29 03:43:37;;;;;;;17.80;4.78;;;;;;;9.68;100.00;102496.09;10300544;28;20034;-82
2023/05/29 03:48:37;;;;;;;12.68;3.65;;;;;;;9.63;100.00;102503.81;10282264;28;20045;-79
2023/05/29 03:53:38;;;;;;;6.30;3.80;;;;;;;9.70;100.00;102511.19;10300349;28;20081;-81
2023/05/29 03:58:38;;;;;;;14.13;4.03;;;;;;;9.76;100.00;102515.09;10301864;28;20038;-81
2023/05/29 04:03:39;;;;;;;17.50;3.95;;;;;;;9.89;100.00;102515.63;10299759;28;20066;-82
2023/05/29 04:08:39;;;;;;;21.52;4.55;;;;;;;10.06;100.00;102526.59;10283289;28;20081;-81
2023/05/29 04:13:40;;;;;;;13.80;5.10;;;;;;;10.11;100.00;102525.09;10284910;28;20062;-83
2023/05/29 04:18:41;;;;;;;13.88;4.65;;;;;;;10.24;100.00;102528.31;10289371;28;20050;-81
2023/05/29 04:23:41;;;;;;;10.60;3.13;;;;;;;10.24;100.00;102532.84;10314837;28;20027;-78
2023/05/29 04:28:42;;;;;;;12.13;3.35;;;;;;;10.31;100.00;102528.56;10311517;28;20034;-81
2023/05/29 04:33:45;;;;;;;11.13;4.18;;;;;;;10.42;100.00;102541.00;10267919;28;20109;-81
2023/05/29 04:38:47;;;;;;;10.95;4.07;;;;;;;10.49;100.00;102533.94;10304568;28;20041;-81
2023/05/29 04:43:48;;;;;;;9.43;4.38;;;;;;;10.59;100.00;102540.13;10300380;28;20049;-81
2023/05/29 04:48:52;;;;;;;7.68;3.17;;;;;;;10.64;100.00;102539.66;10302176;28;20070;-80
2023/05/29 04:53:53;;;;;;;11.73;3.42;;;;;;;10.78;100.00;102555.31;10281035;28;20045;-80
2023/05/29 04:58:54;;;;;;;13.48;3.85;;;;;;;11.05;100.00;102553.50;10300005;28;20463;-82
2023/05/29 05:03:57;;;;;;;8.60;2.85;;;;;;;11.37;100.00;102547.38;10281591;28;20035;-81
2023/05/29 05:08:58;;;;;;;7.57;3.47;;;;;;;11.77;100.00;102559.41;10297583;28;20118;-82
2023/05/29 05:13:58;;;;;;;13.80;4.35;;;;;;;11.81;100.00;102567.06;10297120;28;20137;-81
2023/05/29 05:18:58;;;;;;;5.85;4.10;;;;;;;11.69;100.00;102560.22;10298749;28;20034;-81
2023/05/29 05:24:00;;;;;;;7.60;3.15;;;;;;;11.68;100.00;102580.25;10289120;28;20035;-81
2023/05/29 05:29:00;;;;;;;10.48;3.95;;;;;;;11.69;100.00;102576.50;10289124;28;20081;-81
2023/05/29 05:34:01;;;;;;;14.45;3.75;;;;;;;11.66;100.00;102578.72;10297376;28;20054;-82
2023/05/29 05:39:01;;;;;;;10.63;3.97;;;;;;;11.77;100.00;102571.13;10279815;28;20063;-82
2023/05/29 05:44:02;;;;;;;8.95;3.70;;;;;;;11.96;100.00;102577.31;10279530;28;20415;-82
2023/05/29 05:49:02;;;;;;;11.43;3.83;;;;;;;12.01;99.87;102575.78;10298044;28;20418;-80
2023/05/29 05:54:02;;;;;;;12.65;4.57;;;;;;;12.32;98.82;102583.34;10296692;28;20042;-82
2023/05/29 05:59:03;;;;;;;5.32;3.00;;;;;;;12.34;97.72;102576.69;10301771;28;20463;-81
2023/05/29 06:04:03;;;;;;;16.95;3.63;;;;;;;12.33;96.60;102587.75;10315506;28;20038;-79
2023/05/29 06:09:04;;;;;;;14.02;3.58;;;;;;;12.50;95.59;102591.31;10300876;28;20035;-82
2023/05/29 06:14:04;;;;;;;5.63;3.22;;;;;;;12.84;94.07;102604.75;10311969;28;20474;-81
2023/05/29 06:19:05;;;;;;;13.27;4.80;;;;;;;12.93;92.14;102597.44;10305413;28;20050;-82
2023/05/29 06:24:05;;;;;;;12.93;4.47;;;;;;;13.31;89.48;102593.16;10271256;28;20039;-81
2023/05/29 06:29:06;;;;;;;20.80;4.03;;;;;;;14.23;83.58;102592.53;10302841;28;20062;-81
2023/05/29 06:34:06;;;;;;;10.02;3.97;;;;;;;14.58;80.89;102577.47;10303173;28;20042;-82
2023/05/29 06:39:06;;;;;;;13.70;3.75;;;;;;;14.83;76.46;102586.31;10283963;28;20356;-81
2023/05/29 06:44:07;;;;;;;14.48;3.63;;;;;;;14.98;76.72;102592.66;10302158;28;20042;-80
2023/05/29 06:49:07;;;;;;;10.35;2.90;;;;;;;15.86;72.61;102596.47;10323856;28;20026;-79
2023/05/29 06:54:08;;;;;;;4.70;3.40;;;;;;;16.28;66.03;102592.09;10303514;28;20503;-81
2023/05/29 06:59:08;;;;;;;9.95;4.28;;;;;;;16.76;66.61;102603.31;10299446;28;20466;-82
2023/05/29 07:04:09;;;;;;;17.00;3.55;;;;;;;16.87;60.55;102597.28;10281217;28;20077;-81
2023/05/29 07:09:09;;;;;;;12.10;3.35;;;;;;;16.29;62.30;102599.25;10279735;28;20089;-80
2023/05/29 07:14:09;;;;;;;11.93;4.63;;;;;;;16.86;59.70;102595.63;10298957;28;20054;-81
2023/05/29 07:19:13;;;;;;;6.68;3.58;;;;;;;16.90;61.44;102594.16;10301826;28;20062;-81
2023/05/29 07:24:13;;;;;;;9.90;3.22;;;;;;;17.20;56.41;102596.72;10283234;28;20085;-81
2023/05/29 07:29:14;;;;;;;8.10;3.42;;;;;;;17.23;57.58;102600.94;10299029;28;20375;-79
2023/05/29 07:34:15;;;;;;;3.78;2.22;;;;;;;17.86;55.18;102619.00;10266155;28;20471;-78
2023/05/29 07:39:15;;;;;;;13.18;2.72;;;;;;;18.02;54.86;102620.56;10298782;28;20035;-76
2023/05/29 07:44:16;;;;;;;7.05;2.47;;;;;;;17.89;54.73;102612.28;10295883;28;20039;-82
2023/05/29 07:49:17;;;;;;;5.20;2.67;;;;;;;18.33;52.16;102617.28;10300155;28;20462;-79
2023/05/29 07:54:20;;;;;;;6.65;3.10;;;;;;;18.50;51.15;102612.25;10278315;28;20117;-78
2023/05/29 07:59:21;;;;;;;3.55;2.20;;;;;;;18.29;51.97;102624.25;10279768;28;20030;-78
2023/05/29 08:04:21;;;;;;;7.15;2.90;;;;;;;18.12;53.69;102631.13;10295463;28;20031;-78
2023/05/29 08:09:21;;;;;;;10.45;3.03;;;;;;;19.11;50.71;102621.38;10294978;28;20557;-78
2023/05/29 08:14:22;;;;;;;6.15;2.97;;;;;;;19.89;49.66;102624.19;10294883;28;20104;-79
2023/05/29 08:19:23;;;;;;;7.82;2.90;;;;;;;19.71;48.88;102627.63;10277699;28;20089;-77
2023/05/29 08:24:23;;;;;;;9.15;2.25;;;;;;;19.73;47.05;102631.84;10294806;28;20049;-78
2023/05/29 08:29:24;;;;;;;4.47;2.75;;;;;;;19.09;49.50;102643.56;10299061;28;20119;-80
2023/05/29 08:34:24;;;;;;;6.05;2.40;;;;;;;18.55;48.12;102637.16;10281603;28;20041;-79
2023/05/29 08:39:25;;;;;;;4.68;3.00;;;;;;;18.97;45.98;102632.38;10307782;28;20058;-78
2023/05/29 08:44:25;;;;;;;5.60;2.35;;;;;;;19.54;45.34;102642.88;10309236;28;20046;-78
2023/05/29 08:49:26;;;;;;;9.63;3.13;;;;;;;19.91;46.10;102639.41;10263364;28;20463;-82
2023/05/29 08:54:26;;;;;;;9.10;2.85;;;;;;;19.90;44.50;102651.44;10262533;28;20038;-78
2023/05/29 08:59:27;;;;;;;4.82;3.10;;;;;;;20.04;45.14;102649.50;10293739;28;20034;-76
2023/05/29 09:04:30;;;;;;;13.13;3.35;;;;;;;20.35;43.52;102647.84;10293289;28;20038;-77
2023/05/29 09:09:31;;;;;;;2.90;2.20;;;;;;;20.73;45.66;102636.00;10276203;28;20480;-77
2023/05/29 09:14:42;;;;;;;6.22;2.92;;;;;;;21.29;41.60;102641.44;10281650;28;20051;-80
2023/05/29 09:19:42;;;;;;;2.47;2.28;;;;;;;20.18;43.96;102645.63;10293228;28;20039;-79
2023/05/29 09:24:46;;;;;;;7.45;2.97;;;;;;;20.88;42.78;102640.13;10245575;28;20058;-78
2023/05/29 09:29:47;;;;;;;3.95;2.42;;;;;;;20.15;45.22;102648.81;10295757;28;20077;-78
2023/05/29 09:34:47;;;;;;;10.68;2.90;;;;;;;20.96;42.75;102635.38;10298383;28;20066;-79
2023/05/29 09:39:48;;;;;;;6.30;2.00;;;;;;;21.46;43.63;102641.72;10299825;28;20054;-78
2023/05/29 09:44:51;;;;;;;17.50;3.53;;;;;;;21.57;41.88;102641.00;10300377;28;20109;-79
2023/05/29 09:49:51;;;;;;;8.65;2.30;;;;;;;21.48;43.08;102641.53;10300887;28;20122;-78
2023/05/29 09:54:52;;;;;;;6.07;3.08;;;;;;;21.90;42.46;102634.22;10300343;28;20473;-76
2023/05/29 09:59:52;;;;;;;8.30;3.00;;;;;;;21.73;38.10;102628.50;10300565;28;20035;-79
2023/05/29 10:04:53;;;;;;;11.57;3.10;;;;;;;20.65;40.83;102626.97;10282385;28;20125;-75
2023/05/29 10:10:00;;;;;;;5.32;2.15;;;;;;;20.36;42.74;102614.63;10299839;28;20466;-79
2023/05/29 10:15:00;;;;;;;11.93;3.03;;;;;;;22.10;40.90;102624.84;10267404;28;20378;-78
2023/05/29 10:20:01;;;;;;;2.83;2.53;;;;;;;21.23;40.51;102625.00;10282271;28;20038;-79
2023/05/29 10:25:01;;;;;;;5.57;2.95;;;;;;;21.67;41.58;102625.84;10281348;28;20031;-73
2023/05/29 10:30:06;;;;;;;13.35;3.22;;;;;;;21.93;41.78;102619.97;10266672;28;20125;-81
2023/05/29 10:35:25;;;;;;;4.25;2.45;;;;;;;22.05;39.90;102622.81;10266220;28;20419;-78
2023/05/29 10:40:26;;;;;;;5.32;2.75;;;;;;;22.98;39.60;102626.97;10265579;28;20364;-79
2023/05/29 10:45:32;;;;;;;6.35;3.13;;;;;;;21.67;38.64;102610.13;10298295;28;20125;-78
2023/05/29 10:50:36;;;;;;;2.13;1.95;;;;;;;21.31;39.29;102605.38;10300657;28;20390;-79
2023/05/29 10:55:37;;;;;;;5.18;3.25;;;;;;;21.43;39.23;102608.28;10281783;28;20039;-80
2023/05/29 11:00:45;;;;;;;5.30;2.20;;;;;;;22.09;39.53;102606.63;10284513;28;20541;-80
2023/05/29 11:05:56;;;;;;;8.07;2.72;;;;;;;21.90;37.41;102609.41;10268527;28;20034;-75
2023/05/29 11:10:57;;;;;;;6.78;3.38;;;;;;;22.18;39.53;102589.53;10279995;28;20039;-76
2023/05/29 11:16:30;;;;;;;6.43;4.05;;;;;;;23.11;37.80;102598.28;10281762;28;20058;-77
2023/05/29 11:21:52;;;;;;;9.35;3.40;;;;;;;22.74;38.25;102602.03;10307133;28;20041;-76
2023/05/29 11:26:54;;;;;;;5.60;3.83;;;;;;;22.97;37.55;102601.28;10299831;28;20037;-76
2023/05/29 11:32:02;;;;;;;6.22;3.05;;;;;;;22.71;35.97;102596.16;10306065;28;20138;-80
2023/05/29 11:37:03;;;;;;;9.00;2.88;;;;;;;22.49;37.88;102612.41;10303202;28;20039;-78
2023/05/29 11:42:03;;;;;;;6.90;3.90;;;;;;;22.45;39.51;102612.06;10298455;28;20049;-77
2023/05/29 11:47:05;;;;;;;10.90;3.85;;;;;;;23.27;36.29;102599.47;10280047;28;20031;-76
2023/05/29 11:52:14;;;;;;;10.20;3.30;;;;;;;24.04;39.42;102610.25;10301115;28;20039;-76
2023/05/29 11:57:18;;;;;;;5.93;2.83;;;;;;;23.12;38.01;102608.22;10266841;28;20117;-78
2023/05/29 12:02:19;;;;;;;4.70;3.00;;;;;;;22.85;38.78;102605.06;10295133;28;20086;-79
2023/05/29 12:07:19;;;;;;;4.80;2.97;;;;;;;23.26;37.63;102601.41;10271486;28;20046;-77
2023/05/29 12:12:20;;;;;;;7.05;3.15;;;;;;;22.88;36.62;102594.38;10294040;28;20034;-77
2023/05/29 12:17:20;;;;;;;8.80;4.63;;;;;;;22.13;39.62;102594.03;10260757;28;20548;-83
2023/05/29 12:22:32;;;;;;;4.32;3.50;;;;;;;22.77;37.65;102581.38;10278224;28;20073;-74
2023/05/29 12:27:37;;;;;;;8.10;3.45;;;;;;;22.58;37.80;102582.56;10295565;28;20366;-78
2023/05/29 12:32:38;;;;;;;15.45;3.88;;;;;;;22.39;37.63;102585.38;10293881;28;20121;-80
2023/05/29 12:37:43;;;;;;;4.38;2.72;;;;;;;22.35;39.04;102586.13;10293935;28;20046;-78
2023/05/29 12:42:44;;;;;;;13.47;4.50;;;;;;;22.06;39.09;102586.69;10293414;28;20031;-79
2023/05/29 12:47:46;;;;;;;8.35;3.35;;;;;;;21.67;40.01;102601.84;10276376;28;20126;-79
2023/05/29 12:52:53;;;;;;;12.73;3.40;;;;;;;20.90;40.69;102588.41;10277920;28;20038;-79
2023/05/29 12:57:53;;;;;;;;;;;;;;;21.23;42.13;102567.97;10297244;28;20469;-83
2023/05/29 13:02:54;;;;;;;6.72;4.30;;;;;;;21.33;41.58;102593.06;10296919;28;20008;-83
2023/05/29 13:07:54;;;;;;;11.98;3.13;;;;;;;21.86;41.10;102597.16;10295882;28;20027;-81
2023/05/29 13:12:55;;;;;;;8.75;3.88;;;;;;;21.43;39.44;102602.75;10280104;28;20113;-81
2023/05/29 13:17:55;;;;;;;7.40;4.20;;;;;;;21.44;40.20;102607.19;10280331;28;20051;-81
2023/05/29 13:22:56;;;;;;;9.73;3.53;;;;;;;21.30;41.42;102609.22;10279434;28;20043;-81
2023/05/29 13:27:56;;;;;;;11.73;3.85;;;;;;;20.92;39.98;102620.41;10278030;28;20037;-78
2023/05/29 13:32:56;;;;;;;7.75;3.25;;;;;;;21.04;40.33;102599.31;10279995;28;20398;-77
2023/05/29 13:37:57;;;;;;;5.90;4.57;;;;;;;20.75;41.84;102603.59;10298090;28;20038;-81
2023/05/29 13:42:57;;;;;;;8.63;3.95;;;;;;;20.38;43.24;102606.97;10300297;28;20035;-81
2023/05/29 13:47:58;;;;;;;8.55;3.97;;;;;;;21.11;43.01;102592.66;10297327;28;20062;-76
2023/05/29 13:52:58;;;;;;;4.32;3.72;;;;;;;21.10;39.03;102604.75;10279907;28;20445;-82
2023/05/29 13:57:58;;;;;;;3.53;3.08;;;;;;;20.83;42.24;102608.81;10278239;28;20070;-82
2023/05/29 14:02:59;;;;;;;7.45;2.85;;;;;;;20.84;39.67;102596.75;10300876;28;20077;-80
2023/05/29 14:08:00;;;;;;;6.88;2.90;;;;;;;21.06;39.84;102597.19;10281114;28;20023;-78
2023/05/29 14:13:00;;;;;;;9.23;4.28;;;;;;;21.27;40.78;102587.63;10293104;28;20093;-78
2023/05/29 14:18:02;;;;;;;10.48;2.95;;;;;;;20.71;39.35;102597.69;10295370;28;20078;-81
2023/05/29 14:23:03;;;;;;;7.97;3.58;;;;;;;20.21;39.74;102590.16;10284285;28;20050;-78
2023/05/29 14:28:06;;;;;;;5.53;2.60;;;;;;;20.57;41.38;102587.84;10302341;28;20046;-79
2023/05/29 14:33:06;;;;;;;8.20;3.53;;;;;;;21.36;41.66;102592.66;10311193;28;20046;-83
2023/05/29 14:38:07;;;;;;;3.35;3.05;;;;;;;20.98;41.03;102575.44;10284808;28;20034;-82
2023/05/29 14:43:07;;;;;;;8.63;3.83;;;;;;;20.64;40.69;102589.50;10305568;28;20097;-81
2023/05/29 14:48:07;;;;;;;19.67;4.28;;;;;;;20.37;41.56;102586.03;10304886;28;20377;-82
2023/05/29 14:53:08;;;;;;;15.73;4.13;;;;;;;20.14;41.23;102600.38;10286924;28;20039;-82
2023/05/29 14:58:08;;;;;;;5.63;3.35;;;;;;;20.19;41.58;102603.28;10303241;28;20402;-82
2023/05/29 15:03:09;;;;;;;16.80;3.58;;;;;;;20.55;41.71;102601.84;10302474;28;20046;-83
2023/05/29 15:08:09;;;;;;;12.35;3.20;;;;;;;20.57;42.23;102598.84;10314574;28;20036;-79
2023/05/29 15:13:10;;;;;;;12.52;4.22;;;;;;;20.78;42.76;102597.66;10325452;28;20046;-76
2023/05/29 15:18:10;;;;;;;15.73;3.60;;;;;;;20.58;43.09;102600.53;10343444;28;20090;-78
2023/05/29 15:23:10;;;;;;;12.73;3.60;;;;;;;20.22;43.60;102582.75;10343505;28;20052;-78
2023/05/29 15:28:12;;;;;;;8.88;2.70;;;;;;;19.95;43.56;102607.66;10321240;28;20118;-81
2023/05/29 15:33:13;;;;;;;8.15;3.90;;;;;;;20.02;43.68;102588.38;10305725;28;20041;-82
2023/05/29 15:38:15;;;;;;;14.35;3.05;;;;;;;19.99;44.03;102586.06;10289304;28;20039;-83
2023/05/29 15:43:15;;;;;;;8.50;3.67;;;;;;;19.47;44.49;102590.69;10288333;28;20042;-81
2023/05/29 15:48:16;;;;;;;9.90;4.65;;;;;;;19.34;45.16;102588.81;10288124;28;20040;-83
2023/05/29 15:53:16;;;;;;;9.15;3.40;;;;;;;19.33;45.64;102578.03;10286096;28;20062;-83
2023/05/29 15:58:17;;;;;;;4.70;3.40;;;;;;;19.37;46.22;102593.88;10301791;28;20370;-81
2023/05/29 16:03:17;;;;;;;8.80;3.17;;;;;;;19.13;46.89;102583.56;10301540;28;20050;-82
2023/05/29 16:08:17;;;;;;;9.00;4.03;;;;;;;19.00;46.51;102593.50;10300539;28;20034;-83
2023/05/29 16:13:19;;;;;;;9.00;3.78;;;;;;;18.77;47.01;102579.38;10300220;28;20043;-81
2023/05/29 16:18:19;;;;;;;10.63;2.85;;;;;;;18.54;47.56;102577.03;10281998;28;20054;-82
2023/05/29 16:23:20;;;;;;;10.38;3.75;;;;;;;17.68;48.75;102591.31;10284683;28;20046;-81
2023/05/29 16:28:20;;;;;;;20.05;3.97;;;;;;;17.43;49.40;102583.59;10299633;28;20141;-80
2023/05/29 16:33:21;;;;;;;14.68;4.03;;;;;;;17.37;48.77;102587.13;10323943;28;20097;-81
2023/05/29 16:38:21;;;;;;;9.35;3.10;;;;;;;17.12;49.92;102586.75;10318474;28;20058;-81
2023/05/29 16:43:22;;;;;;;4.22;2.40;;;;;;;17.07;50.70;102594.75;10309498;28;20034;-80
2023/05/29 16:48:23;;;;;;;4.15;3.17;;;;;;;16.77;50.62;102602.25;10305089;28;20065;-80
2023/05/29 16:53:23;;;;;;;9.80;3.60;;;;;;;16.65;50.35;102595.59;10302380;28;20382;-83
2023/05/29 16:58:23;;;;;;;6.97;2.97;;;;;;;16.55;50.78;102597.81;10298417;28;20121;-81
2023/05/29 17:03:24;;;;;;;14.82;3.35;;;;;;;16.36;51.22;102602.06;10301234;28;20039;-81
2023/05/29 17:08:24;;;;;;;4.10;2.88;;;;;;;16.16;51.18;102596.38;10281505;28;20063;-81
2023/05/29 17:13:26;;;;;;;11.27;5.15;;;;;;;16.16;51.54;102601.84;10303761;28;20038;-82
2023/05/29 17:18:26;;;;;;;5.95;4.10;;;;;;;16.13;51.91;102604.97;10304453;28;20102;-79
2023/05/29 17:23:27;;;;;;;9.32;3.78;;;;;;;16.00;54.39;102608.38;10306460;28;20058;-80
2023/05/29 17:28:27;;;;;;;9.55;3.17;;;;;;;15.99;51.98;102609.44;10292367;28;20042;-82
2023/05/29 17:33:28;;;;;;;6.40;3.35;;;;;;;15.87;53.40;102611.78;10282821;28;20042;-82
2023/05/29 17:38:28;;;;;;;7.07;3.35;;;;;;;15.67;54.34;102619.75;10278777;28;20065;-80
2023/05/29 17:43:28;;;;;;;8.48;2.88;;;;;;;15.51;56.02;102628.09;10278072;28;20470;-79
2023/05/29 17:48:29;;;;;;;5.85;3.35;;;;;;;15.39;55.22;102624.97;10295020;28;20090;-82
2023/05/29 17:53:30;;;;;;;8.32;3.17;;;;;;;15.31;55.42;102625.88;10298638;28;20039;-82
2023/05/29 17:58:30;;;;;;;7.78;2.35;;;;;;;15.18;56.18;102628.41;10285929;28;20046;-80
2023/05/29 18:03:31;;;;;;;7.90;2.75;;;;;;;15.11;55.97;102630.22;10305664;28;20034;-80
2023/05/29 18:08:32;;;;;;;6.15;3.20;;;;;;;14.86;58.47;102626.84;10312441;28;20026;-81
2023/05/29 18:13:32;;;;;;;13.00;3.47;;;;;;;14.86;56.64;102635.03;10308185;28;20509;-81
2023/05/29 18:18:32;;;;;;;5.10;2.38;;;;;;;14.81;57.98;102626.56;10295175;28;20058;-80
2023/05/29 18:23:33;;;;;;;10.52;4.20;;;;;;;14.61;57.69;102629.78;10319813;28;20035;-79
2023/05/29 18:28:37;;;;;;;7.35;2.40;;;;;;;14.39;59.29;102625.16;10314698;28;20035;-81
2023/05/29 18:33:38;;;;;;;17.15;4.32;;;;;;;14.23;58.54;102627.97;10281096;28;20034;-81
2023/05/29 18:38:38;;;;;;;8.85;3.80;;;;;;;14.13;58.61;102623.56;10315703;28;20066;-75
2023/05/29 18:43:38;;;;;;;6.07;3.05;;;;;;;13.94;62.01;102624.03;10321790;28;20071;-76
2023/05/29 18:48:39;;;;;;;12.43;3.20;;;;;;;13.86;62.86;102626.81;10324045;28;20375;-80
2023/05/29 18:53:44;;;;;;;8.52;2.90;;;;;;;13.73;64.31;102628.22;10308149;28;20074;-81
2023/05/29 18:58:44;;;;;;;9.55;2.50;;;;;;;13.56;65.45;102626.59;10304632;28;20050;-80
2023/05/29 19:03:45;;;;;;;5.55;2.28;;;;;;;13.45;67.89;102641.41;10301016;28;20039;-81
2023/05/29 19:08:46;;;;;;;5.05;2.80;;;;;;;13.31;69.16;102638.56;10300724;28;20065;-80
2023/05/29 19:13:47;;;;;;;12.30;3.78;;;;;;;13.32;63.59;102640.25;10281326;28;20035;-76
2023/05/29 19:18:48;;;;;;;10.40;2.63;;;;;;;13.08;70.98;102644.69;10300178;28;20184;-79
2023/05/29 19:23:48;;;;;;;10.55;3.42;;;;;;;12.93;72.31;102636.34;10303086;28;20038;-79
2023/05/29 19:28:51;;;;;;;8.15;3.42;;;;;;;12.82;73.45;102623.09;10284231;28;20069;-81
2023/05/29 19:33:52;;;;;;;9.30;3.03;;;;;;;12.67;75.49;102652.00;10303684;28;20055;-81
2023/05/29 19:38:54;;;;;;;5.43;3.00;;;;;;;12.51;77.18;102652.81;10283808;28;20042;-81
2023/05/29 19:43:54;;;;;;;7.10;3.30;;;;;;;12.38;77.21;102656.00;10301487;28;20038;-81
2023/05/29 19:48:55;;;;;;;6.15;2.78;;;;;;;12.31;78.52;102663.09;10307070;28;20062;-79
2023/05/29 19:53:55;;;;;;;18.10;3.55;;;;;;;12.19;78.08;102668.00;10283909;28;20031;-81
2023/05/29 19:58:56;;;;;;;10.38;3.78;;;;;;;12.08;77.82;102662.88;10297095;28;20061;-80
2023/05/29 20:03:56;;;;;;;12.65;3.20;;;;;;;11.96;82.69;102670.47;10279287;28;20043;-79
2023/05/29 20:08:57;;;;;;;8.57;3.38;;;;;;;11.85;84.41;102671.59;10295875;28;20035;-79
2023/05/29 20:13:57;;;;;;;13.75;3.28;;;;;;;11.74;86.39;102671.88;10281285;28;20378;-78
2023/05/29 20:18:58;;;;;;;14.98;3.35;;;;;;;11.70;86.67;102678.63;10302079;28;20026;-81
2023/05/29 20:23:59;;;;;;;6.78;2.90;;;;;;;11.60;89.41;102665.16;10302095;28;20401;-81
2023/05/29 20:28:59;;;;;;;10.77;3.33;;;;;;;11.54;89.70;102681.25;10298792;28;20034;-82
2023/05/29 20:34:00;;;;;;;11.38;3.50;;;;;;;11.45;94.06;102690.34;10302624;28;20382;-79
2023/05/29 20:39:04;;;;;;;18.80;3.90;;;;;;;11.44;91.52;102696.78;10296439;28;20462;-78
2023/05/29 20:44:06;;;;;;;7.03;2.97;;;;;;;11.35;93.44;102694.00;10311664;28;20078;-81
2023/05/29 20:49:08;;;;;;;9.63;4.22;;;;;;;11.31;92.27;102691.78;10316923;28;20467;-81
2023/05/29 20:54:08;;;;;;;7.65;3.00;;;;;;;11.24;95.18;102698.84;10307439;28;20089;-82
2023/05/29 20:59:10;;;;;;;13.43;3.95;;;;;;;11.19;94.66;102688.47;10284418;28;20034;-83
2023/05/29 21:04:11;;;;;;;23.00;4.82;;;;;;;11.09;97.25;102695.84;10295975;28;20066;-80
2023/05/29 21:09:12;;;;;;;7.22;4.03;;;;;;;11.07;98.43;102700.56;10300064;28;20038;-82
2023/05/29 21:14:12;;;;;;;4.78;2.90;;;;;;;11.02;99.95;102692.91;10295739;28;20062;-80
2023/05/29 21:19:12;;;;;;;10.93;4.15;;;;;;;11.00;97.35;102694.06;10299936;28;20031;-83
2023/05/29 21:24:13;;;;;;;12.63;4.63;;;;;;;10.98;97.28;102694.25;10319989;28;20447;-82
2023/05/29 21:29:13;;;;;;;11.65;4.05;;;;;;;10.86;100.00;102685.47;10326170;28;20030;-81
2023/05/29 21:34:14;;;;;;;23.85;3.88;;;;;;;10.88;97.32;102694.31;10304669;28;20474;-81
2023/05/29 21:39:15;;;;;;;8.90;4.82;;;;;;;10.83;99.06;102696.63;10297063;28;20041;-80
2023/05/29 21:44:15;;;;;;;3.35;2.45;;;;;;;10.77;97.67;102705.38;10319061;28;20419;-80
2023/05/29 21:49:16;;;;;;;13.07;3.47;;;;;;;10.72;100.00;102702.31;10328462;28;20059;-81
2023/05/29 21:54:18;;;;;;;8.38;3.30;;;;;;;10.72;96.85;102713.13;10294195;28;20041;-80
2023/05/29 21:59:18;;;;;;;9.48;3.40;;;;;;;10.67;98.59;102704.59;10300516;28;20072;-77
2023/05/29 22:04:19;;;;;;;11.23;4.18;;;;;;;10.61;97.30;102707.94;10326026;28;20043;-80
2023/05/29 22:09:19;;;;;;;13.52;4.03;;;;;;;10.58;96.24;102708.22;10286666;28;20082;-80
2023/05/29 22:14:20;;;;;;;6.28;3.30;;;;;;;10.50;98.51;102713.56;10321689;28;20058;-83
2023/05/29 22:19:23;;;;;;;8.38;4.30;;;;;;;10.50;98.97;102721.69;10312293;28;20038;-81
2023/05/29 22:24:24;;;;;;;4.75;2.90;;;;;;;10.42;97.23;102711.63;10311527;28;20066;-83
2023/05/29 22:29:25;;;;;;;10.10;3.80;;;;;;;10.31;97.31;102723.53;10316311;28;20037;-81
2023/05/29 22:34:25;;;;;;;16.15;4.40;;;;;;;10.31;98.83;102728.94;10315319;28;20062;-81
2023/05/29 22:39:26;;;;;;;20.17;5.00;;;;;;;10.25;96.49;102716.81;10299727;28;20039;-82
2023/05/29 22:44:26;;;;;;;16.58;4.68;;;;;;;10.23;100.00;102718.81;10297007;28;20073;-83
2023/05/29 22:49:27;;;;;;;15.55;3.72;;;;;;;10.16;100.00;102725.00;10314262;28;20035;-82
2023/05/29 22:54:27;;;;;;;22.88;4.72;;;;;;;10.15;100.00;102726.00;10314994;28;20039;-80